THY3UO LTBR-LTCA
Flight info
| Callsign | THY3UO |
|---|---|
| Flight time | N/A |
| Altitude | 41000 |
| Route | EKMEL1D/25R EKMEL UG8 BULUT |
| Aircraft | A333/H-SDE3GHIJ2J3J5M1RVWXY/LB2D1 |
Departure
| Time | 2026-04-26 20:00 |
|---|---|
| Airport | Bursa Yenişehir Airport (LTBR) |
Arrival
| Time | N/A |
|---|---|
| Airport | Elazığ Airport (LTCA) |
| Time | Latitude | Longitude | Altitude | Speed | Heading |
|---|---|---|---|---|---|
| 2026-04-26 19:39 | 40.25595 | 29.54538 | 774 ft | 0 kts | 346° |
| 2026-04-26 19:44 | 40.25593 | 29.54538 | 774 ft | 2 kts | 346° |
| 2026-04-26 19:44 | 40.25577 | 29.54543 | 774 ft | 2 kts | 346° |
| 2026-04-26 19:45 | 40.25562 | 29.54549 | 774 ft | 2 kts | 330° |
| 2026-04-26 19:45 | 40.25550 | 29.54563 | 774 ft | 2 kts | 285° |
| 2026-04-26 19:45 | 40.25549 | 29.54584 | 774 ft | 2 kts | 254° |
| 2026-04-26 19:45 | 40.25550 | 29.54590 | 774 ft | 0 kts | 255° |
| 2026-04-26 19:54 | 40.25547 | 29.54571 | 774 ft | 4 kts | 255° |
| 2026-04-26 19:54 | 40.25537 | 29.54523 | 774 ft | 6 kts | 255° |
| 2026-04-26 19:54 | 40.25516 | 29.54466 | 774 ft | 7 kts | 219° |
| 2026-04-26 19:54 | 40.25470 | 29.54468 | 774 ft | 8 kts | 169° |
| 2026-04-26 19:55 | 40.25414 | 29.54486 | 774 ft | 9 kts | 165° |
| 2026-04-26 19:55 | 40.25347 | 29.54510 | 774 ft | 10 kts | 165° |
| 2026-04-26 19:55 | 40.25276 | 29.54537 | 774 ft | 9 kts | 164° |
| 2026-04-26 19:55 | 40.25234 | 29.54574 | 774 ft | 6 kts | 111° |
| 2026-04-26 19:56 | 40.25238 | 29.54630 | 774 ft | 0 kts | 75° |
| 2026-04-26 19:56 | 40.25240 | 29.54640 | 774 ft | 2 kts | 75° |
| 2026-04-26 19:56 | 40.25242 | 29.54648 | 774 ft | 2 kts | 75° |
| 2026-04-26 19:56 | 40.25244 | 29.54659 | 774 ft | 0 kts | 75° |
| 2026-04-26 19:57 | 40.25249 | 29.54682 | 774 ft | 0 kts | 75° |
| 2026-04-26 19:57 | 40.25250 | 29.54685 | 774 ft | 0 kts | 75° |
| 2026-04-26 19:59 | 40.25252 | 29.54697 | 774 ft | 11 kts | 75° |
| 2026-04-26 19:59 | 40.25333 | 29.55091 | 774 ft | 79 kts | 75° |
| 2026-04-26 20:00 | 40.25540 | 29.56047 | 774 ft | 138 kts | 74° |
| 2026-04-26 20:00 | 40.25829 | 29.57426 | 1164 ft | 161 kts | 75° |
| 2026-04-26 20:00 | 40.26112 | 29.58804 | 2034 ft | 156 kts | 74° |
| 2026-04-26 20:00 | 40.26417 | 29.60216 | 2625 ft | 171 kts | 72° |
| 2026-04-26 20:01 | 40.26796 | 29.61848 | 2912 ft | 205 kts | 71° |
| 2026-04-26 20:01 | 40.27236 | 29.63788 | 3268 ft | 239 kts | 71° |
| 2026-04-26 20:01 | 40.27721 | 29.65985 | 3800 ft | 260 kts | 71° |
| 2026-04-26 20:01 | 40.28224 | 29.68301 | 4579 ft | 268 kts | 72° |
| 2026-04-26 20:02 | 40.28737 | 29.70670 | 5434 ft | 273 kts | 71° |
| 2026-04-26 20:02 | 40.29255 | 29.73080 | 6346 ft | 277 kts | 72° |
| 2026-04-26 20:02 | 40.29745 | 29.75548 | 7232 ft | 281 kts | 73° |
| 2026-04-26 20:02 | 40.30064 | 29.77229 | 7898 ft | 282 kts | 73° |
| 2026-04-26 20:03 | 40.30683 | 29.80543 | 9198 ft | 284 kts | 73° |
| 2026-04-26 20:03 | 40.31154 | 29.83067 | 10140 ft | 287 kts | 73° |
| 2026-04-26 20:03 | 40.31645 | 29.85689 | 10604 ft | 307 kts | 74° |
| 2026-04-26 20:03 | 40.32174 | 29.88509 | 10947 ft | 329 kts | 74° |
| 2026-04-26 20:04 | 40.32727 | 29.91483 | 11538 ft | 341 kts | 74° |
| 2026-04-26 20:04 | 40.33293 | 29.94533 | 12289 ft | 347 kts | 74° |
| 2026-04-26 20:04 | 40.33866 | 29.97626 | 13101 ft | 352 kts | 74° |
| 2026-04-26 20:04 | 40.34446 | 30.00761 | 13889 ft | 357 kts | 74° |
| 2026-04-26 20:05 | 40.35035 | 30.03946 | 14573 ft | 362 kts | 75° |
| 2026-04-26 20:05 | 40.35631 | 30.07174 | 15289 ft | 366 kts | 75° |
| 2026-04-26 20:05 | 40.36232 | 30.10441 | 15996 ft | 371 kts | 75° |
| 2026-04-26 20:05 | 40.36840 | 30.13744 | 16723 ft | 374 kts | 75° |
| 2026-04-26 20:06 | 40.37353 | 30.17113 | 17442 ft | 379 kts | 82° |
| 2026-04-26 20:06 | 40.37427 | 30.20591 | 18148 ft | 385 kts | 91° |
| 2026-04-26 20:06 | 40.37216 | 30.24114 | 18762 ft | 390 kts | 95° |
| 2026-04-26 20:06 | 40.36864 | 30.27660 | 19353 ft | 394 kts | 97° |
| 2026-04-26 20:07 | 40.36448 | 30.31226 | 19959 ft | 398 kts | 98° |
| 2026-04-26 20:07 | 40.36013 | 30.34827 | 20561 ft | 402 kts | 98° |
| 2026-04-26 20:07 | 40.35582 | 30.38460 | 21146 ft | 405 kts | 97° |
| 2026-04-26 20:07 | 40.35160 | 30.42130 | 21740 ft | 409 kts | 97° |
| 2026-04-26 20:08 | 40.34746 | 30.45836 | 22307 ft | 412 kts | 97° |
| 2026-04-26 20:08 | 40.34338 | 30.49570 | 22871 ft | 416 kts | 97° |
| 2026-04-26 20:08 | 40.33931 | 30.53341 | 23422 ft | 420 kts | 97° |
| 2026-04-26 20:08 | 40.33522 | 30.57149 | 23901 ft | 423 kts | 97° |
| 2026-04-26 20:09 | 40.33109 | 30.60981 | 24347 ft | 426 kts | 97° |
| 2026-04-26 20:09 | 40.32691 | 30.64839 | 24818 ft | 429 kts | 97° |
| 2026-04-26 20:09 | 40.32268 | 30.68730 | 25238 ft | 433 kts | 97° |
| 2026-04-26 20:09 | 40.31840 | 30.72645 | 25675 ft | 436 kts | 97° |
| 2026-04-26 20:10 | 40.31413 | 30.76532 | 26112 ft | 438 kts | 97° |
| 2026-04-26 20:10 | 40.30977 | 30.80494 | 26549 ft | 441 kts | 97° |
| 2026-04-26 20:10 | 40.30536 | 30.84479 | 26976 ft | 444 kts | 97° |
| 2026-04-26 20:10 | 40.30091 | 30.88491 | 27419 ft | 446 kts | 97° |
| 2026-04-26 20:11 | 40.29642 | 30.92521 | 27853 ft | 449 kts | 97° |
| 2026-04-26 20:11 | 40.29189 | 30.96574 | 28275 ft | 451 kts | 97° |
| 2026-04-26 20:11 | 40.28732 | 31.00649 | 28732 ft | 453 kts | 97° |
| 2026-04-26 20:12 | 40.27807 | 31.08861 | 29551 ft | 459 kts | 97° |
| 2026-04-26 20:12 | 40.27339 | 31.13008 | 29966 ft | 461 kts | 97° |
| 2026-04-26 20:12 | 40.26866 | 31.17177 | 30307 ft | 464 kts | 97° |
| 2026-04-26 20:12 | 40.26388 | 31.21370 | 30650 ft | 467 kts | 97° |
| 2026-04-26 20:13 | 40.25906 | 31.25587 | 31014 ft | 469 kts | 97° |
| 2026-04-26 20:13 | 40.25422 | 31.29813 | 31386 ft | 471 kts | 97° |
| 2026-04-26 20:13 | 40.24933 | 31.34061 | 31690 ft | 473 kts | 97° |
| 2026-04-26 20:13 | 40.24441 | 31.38329 | 32031 ft | 476 kts | 97° |
| 2026-04-26 20:14 | 40.23943 | 31.42620 | 32380 ft | 477 kts | 97° |
| 2026-04-26 20:14 | 40.23444 | 31.46913 | 32834 ft | 476 kts | 97° |
| 2026-04-26 20:14 | 40.22945 | 31.51189 | 33313 ft | 475 kts | 97° |
| 2026-04-26 20:14 | 40.22445 | 31.55458 | 33806 ft | 473 kts | 97° |
| 2026-04-26 20:15 | 40.21947 | 31.59701 | 34277 ft | 471 kts | 97° |
| 2026-04-26 20:15 | 40.21450 | 31.63929 | 34627 ft | 470 kts | 97° |
| 2026-04-26 20:15 | 40.20951 | 31.68156 | 34942 ft | 471 kts | 97° |
| 2026-04-26 20:15 | 40.20450 | 31.72388 | 35284 ft | 471 kts | 97° |
| 2026-04-26 20:16 | 40.19947 | 31.76618 | 35602 ft | 470 kts | 97° |
| 2026-04-26 20:16 | 40.19444 | 31.80839 | 35938 ft | 470 kts | 97° |
| 2026-04-26 20:16 | 40.18939 | 31.85061 | 36262 ft | 470 kts | 97° |
| 2026-04-26 20:16 | 40.18468 | 31.89289 | 36586 ft | 469 kts | 96° |
| 2026-04-26 20:17 | 40.18099 | 31.93528 | 36888 ft | 469 kts | 94° |
| 2026-04-26 20:17 | 40.17788 | 31.97777 | 37184 ft | 469 kts | 94° |
| 2026-04-26 20:17 | 40.17500 | 32.02025 | 37492 ft | 469 kts | 94° |
| 2026-04-26 20:17 | 40.17311 | 32.04833 | 37690 ft | 469 kts | 94° |
| 2026-04-26 20:18 | 40.16844 | 32.10503 | 38119 ft | 468 kts | 97° |
| 2026-04-26 20:18 | 40.16343 | 32.14702 | 38442 ft | 468 kts | 98° |
| 2026-04-26 20:18 | 40.15769 | 32.18889 | 38696 ft | 468 kts | 99° |
| 2026-04-26 20:18 | 40.15166 | 32.23070 | 38906 ft | 468 kts | 99° |
| 2026-04-26 20:19 | 40.14558 | 32.27255 | 39088 ft | 469 kts | 99° |
| 2026-04-26 20:19 | 40.13956 | 32.31440 | 39283 ft | 469 kts | 99° |
| 2026-04-26 20:19 | 40.13360 | 32.35642 | 39466 ft | 470 kts | 99° |
| 2026-04-26 20:19 | 40.12772 | 32.39835 | 39672 ft | 470 kts | 99° |
| 2026-04-26 20:20 | 40.12188 | 32.44033 | 39868 ft | 470 kts | 99° |
| 2026-04-26 20:20 | 40.11603 | 32.48243 | 40037 ft | 471 kts | 100° |
| 2026-04-26 20:20 | 40.11018 | 32.52451 | 40215 ft | 471 kts | 100° |
| 2026-04-26 20:20 | 40.10430 | 32.56667 | 40371 ft | 472 kts | 100° |
| 2026-04-26 20:21 | 40.09840 | 32.60887 | 40542 ft | 473 kts | 100° |
| 2026-04-26 20:21 | 40.09247 | 32.65112 | 40720 ft | 473 kts | 100° |
| 2026-04-26 20:21 | 40.08653 | 32.69337 | 40902 ft | 474 kts | 101° |
| 2026-04-26 20:22 | 40.07455 | 32.77775 | 41014 ft | 479 kts | 102° |
| 2026-04-26 20:22 | 40.05505 | 32.86084 | 41013 ft | 479 kts | 110° |
| 2026-04-26 20:23 | 40.03173 | 32.94214 | 41014 ft | 478 kts | 112° |
| 2026-04-26 20:23 | 40.00768 | 33.02300 | 41014 ft | 478 kts | 112° |
| 2026-04-26 20:24 | 39.98362 | 33.10372 | 41011 ft | 478 kts | 112° |
| 2026-04-26 20:24 | 39.95962 | 33.18448 | 41014 ft | 478 kts | 112° |
| 2026-04-26 20:25 | 39.93563 | 33.26525 | 41005 ft | 478 kts | 112° |
| 2026-04-26 20:25 | 39.91564 | 33.33238 | 41002 ft | 478 kts | 112° |
| 2026-04-26 20:26 | 39.89154 | 33.41303 | 40999 ft | 478 kts | 112° |
| 2026-04-26 20:26 | 39.86737 | 33.49370 | 40999 ft | 478 kts | 112° |
| 2026-04-26 20:27 | 39.84315 | 33.57426 | 41000 ft | 478 kts | 112° |
| 2026-04-26 20:27 | 39.82301 | 33.65666 | 41003 ft | 478 kts | 106° |
| 2026-04-26 20:28 | 39.80567 | 33.74022 | 41004 ft | 479 kts | 105° |
| 2026-04-26 20:28 | 39.78880 | 33.82400 | 41005 ft | 479 kts | 105° |
| 2026-04-26 20:29 | 39.77006 | 33.90691 | 40999 ft | 478 kts | 110° |
| 2026-04-26 20:29 | 39.74778 | 33.98825 | 40999 ft | 478 kts | 111° |
| 2026-04-26 20:30 | 39.72476 | 34.06925 | 41000 ft | 478 kts | 111° |
| 2026-04-26 20:30 | 39.70161 | 34.15017 | 41001 ft | 478 kts | 111° |
| 2026-04-26 20:31 | 39.67862 | 34.23055 | 40997 ft | 478 kts | 111° |
| 2026-04-26 20:31 | 39.65547 | 34.31144 | 40998 ft | 478 kts | 111° |
| 2026-04-26 20:32 | 39.63230 | 34.39223 | 40999 ft | 478 kts | 111° |
| 2026-04-26 20:32 | 39.60903 | 34.47307 | 41001 ft | 478 kts | 111° |
| 2026-04-26 20:33 | 39.58571 | 34.55386 | 41002 ft | 479 kts | 111° |
| 2026-04-26 20:33 | 39.56231 | 34.63466 | 41001 ft | 479 kts | 112° |
| 2026-04-26 20:34 | 39.53883 | 34.71547 | 41004 ft | 479 kts | 112° |
| 2026-04-26 20:34 | 39.51530 | 34.79623 | 41007 ft | 479 kts | 112° |
| 2026-04-26 20:35 | 39.49170 | 34.87697 | 41002 ft | 479 kts | 112° |
| 2026-04-26 20:35 | 39.46803 | 34.95770 | 41004 ft | 479 kts | 112° |
| 2026-04-26 20:36 | 39.44434 | 35.03827 | 41005 ft | 480 kts | 112° |
| 2026-04-26 20:36 | 39.42056 | 35.11890 | 41007 ft | 480 kts | 112° |
| 2026-04-26 20:37 | 39.39678 | 35.19949 | 41010 ft | 480 kts | 112° |
| 2026-04-26 20:37 | 39.37352 | 35.27969 | 41009 ft | 480 kts | 112° |
| 2026-04-26 20:38 | 39.35016 | 35.36053 | 41015 ft | 480 kts | 112° |
| 2026-04-26 20:38 | 39.32675 | 35.44121 | 41011 ft | 480 kts | 112° |
| 2026-04-26 20:39 | 39.30322 | 35.52193 | 41018 ft | 480 kts | 112° |
| 2026-04-26 20:39 | 39.27961 | 35.60259 | 41017 ft | 480 kts | 112° |
| 2026-04-26 20:40 | 39.25596 | 35.68317 | 41020 ft | 480 kts | 112° |
| 2026-04-26 20:40 | 39.23224 | 35.76375 | 41024 ft | 480 kts | 112° |
| 2026-04-26 20:41 | 39.20846 | 35.84429 | 41027 ft | 480 kts | 112° |
| 2026-04-26 20:41 | 39.18464 | 35.92472 | 41026 ft | 480 kts | 112° |
| 2026-04-26 20:42 | 39.16081 | 36.00514 | 41027 ft | 481 kts | 111° |
| 2026-04-26 20:42 | 39.14660 | 36.08935 | 41026 ft | 482 kts | 101° |
| 2026-04-26 20:43 | 39.13547 | 36.17449 | 41030 ft | 483 kts | 100° |
| 2026-04-26 20:43 | 39.12458 | 36.25979 | 41028 ft | 483 kts | 100° |
| 2026-04-26 20:44 | 39.11366 | 36.34510 | 41030 ft | 483 kts | 101° |
| 2026-04-26 20:44 | 39.10270 | 36.43034 | 41030 ft | 483 kts | 101° |
| 2026-04-26 20:45 | 39.09167 | 36.51555 | 41033 ft | 483 kts | 101° |
| 2026-04-26 20:45 | 39.08058 | 36.60075 | 41031 ft | 483 kts | 101° |
| 2026-04-26 20:46 | 39.06940 | 36.68610 | 41032 ft | 484 kts | 101° |
| 2026-04-26 20:46 | 39.05817 | 36.77141 | 41035 ft | 484 kts | 101° |
| 2026-04-26 20:47 | 39.04686 | 36.85679 | 41042 ft | 484 kts | 101° |
| 2026-04-26 20:47 | 39.03549 | 36.94208 | 41043 ft | 485 kts | 101° |
| 2026-04-26 20:48 | 39.02403 | 37.02758 | 41046 ft | 485 kts | 101° |
| 2026-04-26 20:48 | 39.01251 | 37.11308 | 41050 ft | 485 kts | 101° |
| 2026-04-26 20:49 | 39.00092 | 37.19853 | 41052 ft | 485 kts | 101° |
| 2026-04-26 20:49 | 38.98934 | 37.28340 | 41054 ft | 486 kts | 101° |
| 2026-04-26 20:50 | 38.97762 | 37.36896 | 41058 ft | 486 kts | 101° |
| 2026-04-26 20:50 | 38.96582 | 37.45457 | 41059 ft | 486 kts | 101° |
| 2026-04-26 20:51 | 38.95396 | 37.54010 | 41057 ft | 486 kts | 102° |
| 2026-04-26 20:51 | 38.94202 | 37.62574 | 41064 ft | 488 kts | 102° |
| 2026-04-26 20:51 | 38.93598 | 37.66885 | 40763 ft | 493 kts | 102° |
| 2026-04-26 20:52 | 38.92987 | 37.71235 | 40164 ft | 496 kts | 102° |
| 2026-04-26 20:52 | 38.92371 | 37.75604 | 39544 ft | 499 kts | 102° |
| 2026-04-26 20:52 | 38.91752 | 37.79993 | 38971 ft | 500 kts | 102° |
| 2026-04-26 20:52 | 38.91130 | 37.84382 | 38333 ft | 500 kts | 102° |
| 2026-04-26 20:53 | 38.90507 | 37.88773 | 37673 ft | 499 kts | 102° |
| 2026-04-26 20:53 | 38.89884 | 37.93156 | 37057 ft | 498 kts | 102° |
| 2026-04-26 20:53 | 38.89260 | 37.97522 | 36450 ft | 497 kts | 102° |
| 2026-04-26 20:53 | 38.88638 | 38.01870 | 35848 ft | 495 kts | 102° |
| 2026-04-26 20:54 | 38.88016 | 38.06204 | 35262 ft | 493 kts | 103° |
| 2026-04-26 20:54 | 38.87396 | 38.10511 | 34670 ft | 491 kts | 103° |
| 2026-04-26 20:54 | 38.86774 | 38.14816 | 34104 ft | 488 kts | 103° |
| 2026-04-26 20:54 | 38.86155 | 38.19093 | 33379 ft | 487 kts | 103° |
| 2026-04-26 20:55 | 38.85535 | 38.23359 | 32560 ft | 487 kts | 103° |
| 2026-04-26 20:55 | 38.84911 | 38.27641 | 31687 ft | 489 kts | 103° |
| 2026-04-26 20:55 | 38.84285 | 38.31929 | 30928 ft | 489 kts | 103° |
| 2026-04-26 20:55 | 38.83663 | 38.36184 | 30102 ft | 482 kts | 103° |
| 2026-04-26 20:56 | 38.83046 | 38.40389 | 28882 ft | 476 kts | 103° |
| 2026-04-26 20:56 | 38.82439 | 38.44523 | 27691 ft | 468 kts | 103° |
| 2026-04-26 20:56 | 38.81839 | 38.48591 | 26433 ft | 461 kts | 102° |
| 2026-04-26 20:56 | 38.81246 | 38.52601 | 25231 ft | 454 kts | 102° |
| 2026-04-26 20:57 | 38.80661 | 38.56547 | 24229 ft | 445 kts | 102° |
| 2026-04-26 20:57 | 38.80087 | 38.60411 | 23012 ft | 440 kts | 102° |
| 2026-04-26 20:57 | 38.79524 | 38.64195 | 22320 ft | 422 kts | 102° |
| 2026-04-26 20:57 | 38.78985 | 38.67810 | 21714 ft | 405 kts | 102° |
| 2026-04-26 20:58 | 38.78458 | 38.71338 | 20699 ft | 401 kts | 102° |
| 2026-04-26 20:58 | 38.77763 | 38.74710 | 20189 ft | 382 kts | 112° |
| 2026-04-26 20:58 | 38.76620 | 38.77684 | 19690 ft | 364 kts | 126° |
| 2026-04-26 20:58 | 38.75020 | 38.80074 | 19257 ft | 346 kts | 141° |
| 2026-04-26 20:59 | 38.73067 | 38.81763 | 18616 ft | 336 kts | 154° |
| 2026-04-26 20:59 | 38.70994 | 38.83109 | 17812 ft | 333 kts | 156° |
| 2026-04-26 20:59 | 38.68917 | 38.84376 | 17016 ft | 329 kts | 157° |
| 2026-04-26 20:59 | 38.66857 | 38.85621 | 16245 ft | 325 kts | 157° |
| 2026-04-26 21:00 | 38.64809 | 38.86859 | 15322 ft | 327 kts | 156° |
| 2026-04-26 21:00 | 38.62745 | 38.88108 | 14365 ft | 329 kts | 156° |
| 2026-04-26 21:00 | 38.60671 | 38.89366 | 13351 ft | 331 kts | 156° |
| 2026-04-26 21:00 | 38.58590 | 38.90628 | 12330 ft | 331 kts | 156° |
| 2026-04-26 21:01 | 38.56489 | 38.91841 | 11187 ft | 333 kts | 160° |
| 2026-04-26 21:01 | 38.54928 | 38.92786 | 10270 ft | 339 kts | 148° |
| 2026-04-26 21:01 | 38.53368 | 38.94983 | 9608 ft | 330 kts | 117° |
| 2026-04-26 21:01 | 38.52903 | 38.96752 | 8051 ft | 313 kts | 99° |
| 2026-04-26 21:02 | 38.52933 | 38.99405 | 7908 ft | 286 kts | 84° |
| 2026-04-26 21:02 | 38.53300 | 39.01777 | 7883 ft | 260 kts | 75° |
| 2026-04-26 21:02 | 38.53769 | 39.03923 | 7711 ft | 242 kts | 73° |
| 2026-04-26 21:02 | 38.54231 | 39.05878 | 7584 ft | 224 kts | 73° |
| 2026-04-26 21:03 | 38.54681 | 39.07713 | 7425 ft | 209 kts | 71° |
| 2026-04-26 21:03 | 38.55215 | 39.09372 | 7282 ft | 196 kts | 65° |
| 2026-04-26 21:03 | 38.55783 | 39.10902 | 7112 ft | 186 kts | 64° |
| 2026-04-26 21:03 | 38.56334 | 39.12355 | 6900 ft | 177 kts | 64° |
| 2026-04-26 21:04 | 38.56854 | 39.13758 | 6588 ft | 175 kts | 68° |
| 2026-04-26 21:04 | 38.57086 | 39.14620 | 5435 ft | 0 kts | 73° |
| 2026-04-26 21:04 | 38.57405 | 39.16109 | 5089 ft | 173 kts | 76° |
| 2026-04-26 21:04 | 38.57618 | 39.17586 | 4903 ft | 164 kts | 79° |
| 2026-04-26 21:05 | 38.57901 | 39.18974 | 4644 ft | 160 kts | 70° |
| 2026-04-26 21:05 | 38.58266 | 39.20309 | 4325 ft | 159 kts | 73° |
| 2026-04-26 21:05 | 38.58527 | 39.21680 | 3989 ft | 159 kts | 78° |
| 2026-04-26 21:05 | 38.58761 | 39.23058 | 3673 ft | 159 kts | 77° |
| 2026-04-26 21:06 | 38.59033 | 39.24412 | 3395 ft | 155 kts | 74° |
| 2026-04-26 21:06 | 38.59289 | 39.25735 | 3133 ft | 151 kts | 74° |
| 2026-04-26 21:06 | 38.59538 | 39.26995 | 2936 ft | 142 kts | 73° |
| 2026-04-26 21:06 | 38.59742 | 39.28021 | 2935 ft | 81 kts | 76° |